Time;durP1;ratioP1;P1;durP2;ratioP2;P2;SDS_P1;SDS_P2;PMS_P1;PMS_P2;Temp;Humidity;BMP_temperature;BMP_pressure;BME280_temperature;BME280_humidity;BME280_pressure;Samples;Min_cycle;Max_cycle;Signal;HPM_P1;HPM_P2
2023/01/18 00:00:51;;;;;;;6.07;4.50;;;;;;;6.71;100.00;93390.75;5025472;28;20077;-48
2023/01/18 00:03:19;;;;;;;;;;;;;;;6.81;100.00;93396.41;5028493;28;20108;-45
2023/01/18 00:05:48;;;;;;;6.68;4.15;;;;;;;6.56;100.00;93397.94;5027421;28;20353;-51
2023/01/18 00:08:17;;;;;;;5.50;4.32;;;;;;;6.58;100.00;93401.16;5028904;28;20076;-47
2023/01/18 00:10:46;;;;;;;5.07;4.30;;;;;;;6.69;100.00;93405.03;5026908;28;20096;-45
2023/01/18 00:13:14;;;;;;;5.72;4.75;;;;;;;6.62;100.00;93399.78;5024388;28;20076;-46
2023/01/18 00:15:42;;;;;;;5.10;4.07;;;;;;;6.50;100.00;93393.47;5020324;28;20081;-46
2023/01/18 00:18:11;;;;;;;6.95;4.50;;;;;;;6.76;100.00;93395.38;5022347;28;20077;-50
2023/01/18 00:20:39;;;;;;;5.15;4.00;;;;;;;6.69;100.00;93397.97;5028089;28;20093;-47
2023/01/18 00:23:09;;;;;;;6.13;4.18;;;;;;;6.47;100.00;93399.91;5027796;28;20081;-48
2023/01/18 00:25:37;;;;;;;4.23;3.70;;;;;;;6.50;100.00;93401.31;5025862;28;20093;-51
2023/01/18 00:28:05;;;;;;;5.05;4.20;;;;;;;6.89;100.00;93395.44;5028529;28;20088;-46
2023/01/18 00:30:33;;;;;;;5.47;3.63;;;;;;;6.67;100.00;93394.75;5031770;28;20084;-48
2023/01/18 00:33:02;;;;;;;4.90;3.80;;;;;;;6.25;100.00;93401.00;5029299;28;20081;-47
2023/01/18 00:35:30;;;;;;;6.03;4.20;;;;;;;6.59;100.00;93387.06;5027107;28;20085;-47
2023/01/18 00:37:59;;;;;;;4.57;3.67;;;;;;;6.65;100.00;93391.53;5021450;28;20085;-46
2023/01/18 00:40:29;;;;;;;8.02;4.05;;;;;;;6.99;100.00;93389.81;5031557;28;20100;-45
2023/01/18 00:45:43;;;;;;;5.85;3.53;;;;;;;6.91;100.00;93390.78;5030818;28;20093;-48
2023/01/18 00:48:11;;;;;;;5.38;3.80;;;;;;;6.96;100.00;93385.78;5032444;28;20076;-44
2023/01/18 00:50:39;;;;;;;6.57;3.78;;;;;;;6.76;100.00;93379.69;5025444;28;20521;-43
2023/01/18 00:53:08;;;;;;;6.88;3.72;;;;;;;7.00;100.00;93381.75;5030878;28;20096;-45
2023/01/18 00:55:37;;;;;;;5.75;3.55;;;;;;;7.17;100.00;93374.31;5029731;28;20552;-49
2023/01/18 00:58:06;;;;;;;7.38;4.03;;;;;;;7.24;100.00;93385.63;5030651;28;20589;-47
2023/01/18 01:00:34;;;;;;;4.18;3.70;;;;;;;7.25;100.00;93386.41;5029731;28;20091;-49
2023/01/18 01:03:02;;;;;;;5.15;3.60;;;;;;;7.36;100.00;93386.66;5031149;28;20091;-50
2023/01/18 01:08:16;;;;;;;4.95;3.45;;;;;;;7.30;100.00;93382.19;5034022;28;20607;-44
2023/01/18 01:10:48;;;;;;;4.90;3.55;;;;;;;6.98;100.00;93386.38;5028036;28;20584;-46
2023/01/18 01:27:10;;;;;;;4.78;3.53;;;;;;;6.68;100.00;93395.56;5025570;28;20116;-44
2023/01/18 01:29:39;;;;;;;5.82;4.10;;;;;;;6.78;100.00;93388.13;5027042;28;20081;-49
2023/01/18 01:32:07;;;;;;;6.00;3.92;;;;;;;6.85;100.00;93395.03;5025017;28;20089;-46
2023/01/18 01:34:35;;;;;;;4.60;3.88;;;;;;;6.87;100.00;93402.66;5017949;28;20077;-49
2023/01/18 01:37:04;;;;;;;4.75;3.85;;;;;;;6.80;100.00;93401.84;5032603;28;20088;-47
2023/01/18 01:39:32;;;;;;;5.57;3.80;;;;;;;6.77;100.00;93412.69;5030775;28;20786;-50
2023/01/18 01:42:01;;;;;;;4.78;3.58;;;;;;;6.77;100.00;93413.50;5029830;28;20122;-48
2023/01/18 01:44:55;;;;;;;6.07;4.00;;;;;;;6.83;100.00;93410.09;5035296;28;20088;-45
2023/01/18 01:47:32;;;;;;;4.65;3.95;;;;;;;6.86;100.00;93419.38;5018905;28;20091;-48
2023/01/18 01:50:03;;;;;;;6.25;4.35;;;;;;;5.91;100.00;93428.72;5027337;28;20085;-42
2023/01/18 01:52:34;;;;;;;6.80;4.28;;;;;;;6.42;100.00;93433.69;5033510;28;20120;-48
2023/01/18 01:55:05;;;;;;;6.07;4.35;;;;;;;5.87;100.00;93428.31;5030244;28;20077;-46
2023/01/18 01:57:36;;;;;;;6.53;4.30;;;;;;;6.66;100.00;93427.97;5032141;28;20177;-48
2023/01/18 02:00:09;;;;;;;4.57;3.67;;;;;;;6.86;100.00;93419.38;5032078;28;20081;-45
2023/01/18 02:02:38;;;;;;;4.78;3.97;;;;;;;6.80;100.00;93415.72;5025290;28;20104;-47
2023/01/18 02:05:08;;;;;;;6.32;4.03;;;;;;;6.65;100.00;93415.88;5028576;28;20070;-47
2023/01/18 02:07:36;;;;;;;6.55;4.05;;;;;;;6.12;100.00;93430.50;5036870;28;20084;-47
2023/01/18 02:10:06;;;;;;;6.28;4.07;;;;;;;6.56;100.00;93421.50;5026641;28;20104;-46
2023/01/18 02:12:35;;;;;;;6.10;4.22;;;;;;;6.48;100.00;93427.69;5028355;28;20084;-46
2023/01/18 02:15:06;;;;;;;6.57;4.28;;;;;;;6.74;100.00;93429.59;5024797;28;20082;-46
2023/01/18 02:17:45;;;;;;;6.15;4.07;;;;;;;6.68;100.00;93438.25;5036371;28;20081;-46
2023/01/18 02:20:31;;;;;;;4.63;3.88;;;;;;;6.82;100.00;93437.31;5030974;28;20482;-48
2023/01/18 02:23:34;;;;;;;6.13;4.13;;;;;;;6.77;100.00;93441.50;5032391;28;20084;-49
2023/01/18 02:26:53;;;;;;;6.75;4.22;;;;;;;6.59;100.00;93452.50;5001602;28;20117;-45
2023/01/18 02:29:38;;;;;;;5.22;3.88;;;;;;;6.75;100.00;93451.38;4962418;28;20113;-45
2023/01/18 02:32:22;;;;;;;5.03;3.83;;;;;;;6.87;100.00;93458.47;5029914;28;20462;-44
2023/01/18 02:34:56;;;;;;;5.57;4.20;;;;;;;6.57;100.00;93472.81;5027523;28;20119;-46
2023/01/18 02:37:29;;;;;;;5.78;3.92;;;;;;;6.55;100.00;93472.22;5025585;28;20077;-47
2023/01/18 02:40:07;;;;;;;5.30;4.00;;;;;;;6.70;100.00;93478.13;5030628;28;20071;-46
2023/01/18 02:48:15;;;;;;;5.18;3.70;;;;;;;6.70;100.00;93477.34;5029361;28;20512;-45
2023/01/18 02:50:43;;;;;;;4.35;3.50;;;;;;;6.73;100.00;93474.31;5028911;28;20093;-46
2023/01/18 02:53:13;;;;;;;4.85;3.83;;;;;;;6.45;100.00;93484.84;5030380;28;20076;-44
2023/01/18 02:55:46;;;;;;;4.50;3.72;;;;;;;6.25;100.00;93487.34;5024794;28;20081;-49
2023/01/18 02:58:17;;;;;;;4.80;3.70;;;;;;;6.02;100.00;93495.41;5035485;28;20075;-49
2023/01/18 03:00:50;;;;;;;4.22;3.60;;;;;;;6.24;100.00;93494.38;5025648;28;20077;-47
2023/01/18 03:03:20;;;;;;;5.65;4.28;;;;;;;6.26;100.00;93495.00;5033155;28;20064;-43
2023/01/18 03:05:49;;;;;;;4.55;3.90;;;;;;;6.06;100.00;93497.50;5033298;28;20073;-48
2023/01/18 03:08:22;;;;;;;4.47;3.42;;;;;;;6.35;100.00;93490.44;5024477;28;20073;-44
2023/01/18 03:10:57;;;;;;;4.78;3.65;;;;;;;6.13;100.00;93494.94;5027903;28;20065;-46
2023/01/18 03:13:31;;;;;;;4.38;3.40;;;;;;;6.18;100.00;93495.16;5028758;28;20085;-44
2023/01/18 03:16:05;;;;;;;4.85;3.75;;;;;;;6.37;100.00;93494.47;5027372;28;20068;-46
2023/01/18 03:18:59;;;;;;;5.72;4.00;;;;;;;6.48;100.00;93494.94;5029718;28;20061;-47
2023/01/18 03:21:34;;;;;;;3.75;3.25;;;;;;;6.05;100.00;93497.66;5025440;28;20092;-50
2023/01/18 03:24:05;;;;;;;3.88;3.25;;;;;;;6.18;100.00;93495.94;5037261;28;20112;-50
2023/01/18 03:26:36;;;;;;;3.35;3.00;;;;;;;5.65;100.00;93497.31;5030609;28;20525;-47
2023/01/18 03:34:44;;;;;;;3.58;3.10;;;;;;;6.22;100.00;93490.34;5028776;28;20072;-44
2023/01/18 03:37:16;;;;;;;4.95;3.42;;;;;;;6.03;100.00;93490.03;5029954;28;20207;-46
2023/01/18 03:39:47;;;;;;;4.32;3.13;;;;;;;6.09;100.00;93491.88;5036110;28;20084;-46
2023/01/18 03:42:17;;;;;;;4.53;3.28;;;;;;;6.65;100.00;93486.56;5028879;28;20080;-46
2023/01/18 03:44:50;;;;;;;4.25;2.95;;;;;;;6.25;100.00;93482.13;5032487;28;20513;-46
2023/01/18 03:47:20;;;;;;;3.83;3.30;;;;;;;5.89;100.00;93494.31;5030012;28;20057;-46
2023/01/18 03:49:48;;;;;;;5.55;3.85;;;;;;;5.61;100.00;93496.06;5027568;28;20072;-48
2023/01/18 03:52:18;;;;;;;4.90;3.72;;;;;;;5.75;100.00;93500.44;5030863;28;20068;-48
2023/01/18 03:54:55;;;;;;;6.88;3.60;;;;;;;5.87;100.00;93496.28;5025777;28;20082;-47
2023/01/18 03:57:27;;;;;;;3.80;3.17;;;;;;;5.65;100.00;93497.31;5031995;28;20092;-43
2023/01/18 03:59:56;;;;;;;4.75;3.50;;;;;;;5.96;100.00;93506.66;5041559;28;20086;-47
2023/01/18 04:02:26;;;;;;;4.28;3.83;;;;;;;6.11;100.00;93499.53;5030769;28;20482;-48
2023/01/18 04:05:02;;;;;;;5.45;3.50;;;;;;;5.91;100.00;93502.75;5027360;28;20144;-48
2023/01/18 04:07:31;;;;;;;3.72;3.10;;;;;;;5.66;100.00;93504.16;5026196;28;20089;-46
2023/01/18 04:09:59;;;;;;;3.92;3.20;;;;;;;6.47;100.00;93509.00;5031277;28;20080;-51
2023/01/18 04:12:27;;;;;;;4.35;3.28;;;;;;;6.36;100.00;93505.91;5039810;28;20077;-44
2023/01/18 04:14:56;;;;;;;4.43;3.35;;;;;;;5.74;100.00;93500.59;5024144;28;20072;-43
2023/01/18 04:17:26;;;;;;;4.03;3.15;;;;;;;6.40;100.00;93504.56;5026692;28;20183;-45
2023/01/18 04:19:55;;;;;;;4.03;3.13;;;;;;;5.92;100.00;93498.34;5044198;28;20068;-44
2023/01/18 04:22:23;;;;;;;4.38;3.50;;;;;;;6.00;100.00;93508.69;5026500;28;20076;-45
2023/01/18 04:24:51;;;;;;;4.38;2.90;;;;;;;6.52;100.00;93496.16;5022917;28;20084;-45
2023/01/18 04:27:20;;;;;;;2.92;2.63;;;;;;;6.61;100.00;93502.88;5022381;28;20826;-46
2023/01/18 04:29:51;;;;;;;3.78;3.00;;;;;;;6.38;100.00;93509.16;5026757;28;20525;-49
2023/01/18 04:32:19;;;;;;;4.28;3.20;;;;;;;6.23;100.00;93505.03;5025943;28;20072;-48
2023/01/18 04:34:49;;;;;;;4.35;2.97;;;;;;;6.43;100.00;93505.97;5043581;28;20072;-45
2023/01/18 04:37:17;;;;;;;4.83;3.30;;;;;;;5.90;100.00;93506.38;5028334;28;20125;-46
2023/01/18 04:39:46;;;;;;;4.25;3.30;;;;;;;5.71;100.00;93505.22;5021902;28;20120;-49
2023/01/18 04:42:15;;;;;;;4.45;3.10;;;;;;;5.76;100.00;93504.66;5027975;28;20077;-44
2023/01/18 04:44:43;;;;;;;4.18;3.40;;;;;;;5.50;100.00;93505.19;5030399;28;20081;-43
2023/01/18 04:47:11;;;;;;;4.20;3.20;;;;;;;5.81;100.00;93510.09;5028109;28;20077;-43
2023/01/18 04:49:40;;;;;;;4.47;3.47;;;;;;;5.89;100.00;93506.56;5023639;28;20065;-45
2023/01/18 04:52:09;;;;;;;4.35;2.85;;;;;;;5.92;100.00;93514.88;5018894;28;20080;-46
2023/01/18 04:54:38;;;;;;;3.75;3.40;;;;;;;5.89;100.00;93506.56;5028575;28;20081;-44
2023/01/18 04:57:06;;;;;;;4.32;3.60;;;;;;;5.81;100.00;93512.72;5024563;28;20084;-43
2023/01/18 04:59:38;;;;;;;3.47;3.10;;;;;;;5.84;100.00;93514.97;5024563;28;20100;-44
2023/01/18 05:02:06;;;;;;;3.97;3.10;;;;;;;5.78;100.00;93520.13;5027110;28;20084;-46
2023/01/18 05:04:35;;;;;;;4.10;3.30;;;;;;;5.51;100.00;93519.09;5039644;28;20080;-44
2023/01/18 05:07:03;;;;;;;4.10;3.67;;;;;;;5.89;100.00;93517.03;5025587;28;21860;-47
2023/01/18 05:09:33;;;;;;;3.80;3.05;;;;;;;5.51;100.00;93534.78;5020691;28;20076;-45
2023/01/18 05:12:01;;;;;;;5.93;3.10;;;;;;;5.90;100.00;93531.72;5025608;28;20081;-49
2023/01/18 05:14:30;;;;;;;4.88;3.88;;;;;;;6.02;100.00;93529.41;5025927;28;20139;-44
2023/01/18 05:16:58;;;;;;;3.92;3.40;;;;;;;5.92;100.00;93532.34;5022440;28;20121;-48
2023/01/18 05:19:29;;;;;;;3.40;3.00;;;;;;;6.10;100.00;93537.97;5022767;28;20520;-50
2023/01/18 05:21:57;;;;;;;3.85;3.30;;;;;;;6.09;100.00;93538.13;5026232;28;20077;-47
2023/01/18 05:24:26;;;;;;;4.45;3.55;;;;;;;6.10;100.00;93539.75;5028463;28;20065;-44
2023/01/18 05:26:58;;;;;;;5.63;3.63;;;;;;;6.14;100.00;93541.00;5027946;28;20085;-44
2023/01/18 05:29:27;;;;;;;5.47;3.95;;;;;;;5.85;100.00;93541.91;5028051;28;20072;-47
2023/01/18 05:31:55;;;;;;;4.10;3.65;;;;;;;5.52;100.00;93554.69;5025421;28;20088;-48
2023/01/18 05:34:24;;;;;;;5.03;4.28;;;;;;;5.90;100.00;93555.25;5025818;28;20483;-48
2023/01/18 05:36:52;;;;;;;5.00;3.75;;;;;;;6.05;100.00;93552.59;5023068;28;20093;-50
2023/01/18 05:39:20;;;;;;;5.03;4.30;;;;;;;6.11;100.00;93563.09;5032183;28;20088;-43
2023/01/18 05:41:48;;;;;;;5.47;3.65;;;;;;;6.34;100.00;93562.91;5023630;28;20549;-43
2023/01/18 05:44:18;;;;;;;5.30;4.00;;;;;;;5.90;100.00;93560.47;5024517;28;20104;-49
2023/01/18 05:46:46;;;;;;;7.93;3.90;;;;;;;5.81;100.00;93559.78;5024475;28;20704;-46
2023/01/18 05:49:15;;;;;;;4.60;3.20;;;;;;;5.36;100.00;93564.34;5024911;28;21059;-47
2023/01/18 05:51:43;;;;;;;4.05;3.40;;;;;;;5.04;100.00;93568.22;5024656;28;20572;-47
2023/01/18 05:54:12;;;;;;;5.57;3.72;;;;;;;4.92;100.00;93569.66;5027670;28;20077;-49
2023/01/18 05:56:40;;;;;;;3.63;2.92;;;;;;;4.85;100.00;93564.38;5022963;28;20450;-48
2023/01/18 05:59:09;;;;;;;4.47;3.20;;;;;;;4.86;100.00;93565.97;5023452;28;20072;-44
2023/01/18 06:01:38;;;;;;;5.28;3.40;;;;;;;5.08;100.00;93573.88;5031607;28;20553;-46
2023/01/18 06:04:07;;;;;;;3.95;3.55;;;;;;;5.24;100.00;93573.69;5022572;28;20535;-47
2023/01/18 06:06:35;;;;;;;3.58;3.13;;;;;;;5.25;100.00;93577.91;5022773;28;20103;-47
2023/01/18 06:09:04;;;;;;;2.60;2.40;;;;;;;5.43;100.00;93578.28;5029117;28;20072;-46
2023/01/18 06:11:32;;;;;;;3.60;2.72;;;;;;;5.53;100.00;93574.59;5021552;28;20089;-50
2023/01/18 06:14:00;;;;;;;3.25;2.95;;;;;;;5.40;100.00;93585.69;5030218;28;20549;-46
2023/01/18 06:16:29;;;;;;;4.15;3.75;;;;;;;5.40;100.00;93577.84;5023314;28;20514;-44
2023/01/18 06:18:58;;;;;;;6.53;3.15;;;;;;;5.65;100.00;93576.53;5022805;28;20076;-44
2023/01/18 06:21:27;;;;;;;4.23;3.40;;;;;;;5.46;100.00;93588.38;5030488;28;20477;-48
2023/01/18 06:23:55;;;;;;;4.68;3.63;;;;;;;5.38;100.00;93592.94;5025410;28;20103;-48
2023/01/18 06:26:23;;;;;;;4.60;3.92;;;;;;;5.41;100.00;93593.38;5027723;28;20069;-50
2023/01/18 06:28:52;;;;;;;4.15;2.97;;;;;;;5.60;100.00;93596.38;5029211;28;20081;-48
2023/01/18 06:31:20;;;;;;;3.92;3.20;;;;;;;5.78;100.00;93606.41;5026432;28;20072;-46
2023/01/18 06:33:49;;;;;;;3.58;3.28;;;;;;;5.89;100.00;93593.66;5030731;28;20073;-45
2023/01/18 06:36:18;;;;;;;5.05;3.28;;;;;;;5.79;100.00;93605.44;5026691;28;20081;-47
2023/01/18 06:38:46;;;;;;;3.77;3.13;;;;;;;5.86;100.00;93607.13;5032191;28;20078;-47
2023/01/18 06:41:16;;;;;;;3.63;3.33;;;;;;;5.75;100.00;93619.84;5031738;28;20048;-46
2023/01/18 06:43:44;;;;;;;3.80;3.10;;;;;;;5.87;100.00;93618.38;5026506;28;20081;-51
2023/01/18 06:46:12;;;;;;;4.10;3.50;;;;;;;5.89;100.00;93619.00;5026155;28;20073;-46
2023/01/18 06:48:40;;;;;;;4.47;3.50;;;;;;;5.81;100.00;93625.16;5027532;28;20092;-47
2023/01/18 06:51:11;;;;;;;4.35;3.30;;;;;;;5.92;100.00;93627.31;5026616;28;20084;-48
2023/01/18 06:53:41;;;;;;;4.10;3.70;;;;;;;6.26;100.00;93627.63;5024309;28;20087;-48
2023/01/18 06:56:09;;;;;;;4.60;3.65;;;;;;;6.19;100.00;93627.56;5023789;28;20089;-45
2023/01/18 06:58:37;;;;;;;4.53;3.50;;;;;;;6.06;100.00;93632.69;5023545;28;20183;-47
2023/01/18 07:01:06;;;;;;;4.30;3.78;;;;;;;6.04;100.00;93632.88;5023071;28;20065;-44
2023/01/18 07:03:35;;;;;;;5.93;3.63;;;;;;;6.38;100.00;93628.75;5025060;28;20091;-47
2023/01/18 07:06:05;;;;;;;7.20;4.93;;;;;;;6.92;100.00;93638.63;5025871;28;20104;-44
2023/01/18 07:08:34;;;;;;;7.32;5.47;;;;;;;7.01;100.00;93631.41;5025751;28;20108;-44
2023/01/18 07:11:08;;;;;;;6.68;4.50;;;;;;;6.74;100.00;93646.13;5026597;28;20248;-49
2023/01/18 07:13:38;;;;;;;6.95;4.38;;;;;;;6.69;100.00;93644.09;5027158;28;20077;-49
2023/01/18 07:16:08;;;;;;;5.63;4.32;;;;;;;6.71;100.00;93657.81;5024130;28;20085;-47
2023/01/18 07:18:36;;;;;;;7.13;4.82;;;;;;;6.80;100.00;93658.47;5026784;28;20088;-52
2023/01/18 07:21:06;;;;;;;9.32;5.70;;;;;;;6.64;100.00;93657.75;5027707;28;20088;-48
2023/01/18 07:23:35;;;;;;;6.20;4.80;;;;;;;6.77;100.00;93664.88;5022898;28;20489;-49
2023/01/18 07:26:05;;;;;;;17.05;9.40;;;;;;;6.78;100.00;93666.53;5027200;28;20077;-48
2023/01/18 07:28:36;;;;;;;9.35;6.50;;;;;;;6.89;99.23;93660.75;5023554;28;20081;-49
2023/01/18 07:31:06;;;;;;;7.88;6.00;;;;;;;7.50;92.04;93657.50;5026723;28;20084;-48
2023/01/18 07:33:35;;;;;;;6.65;5.18;;;;;;;7.56;88.13;93661.94;5023969;28;20082;-43
2023/01/18 07:36:06;;;;;;;12.80;7.93;;;;;;;7.59;84.36;93666.78;5027759;28;20084;-49
2023/01/18 07:38:34;;;;;;;8.85;6.53;;;;;;;7.85;82.95;93660.06;5028140;28;20072;-48
2023/01/18 07:41:04;;;;;;;5.45;4.40;;;;;;;7.93;79.58;93666.94;5021647;28;20089;-47
2023/01/18 07:43:36;;;;;;;4.88;4.30;;;;;;;8.06;77.49;93664.34;5029477;28;20111;-48
2023/01/18 07:46:05;;;;;;;5.22;4.00;;;;;;;8.21;75.48;93670.22;5027311;28;20084;-50
2023/01/18 07:48:33;;;;;;;4.95;3.80;;;;;;;7.81;79.47;93680.63;5027007;28;20097;-48
2023/01/18 07:51:07;;;;;;;3.90;3.47;;;;;;;8.32;73.97;93672.25;5029527;28;20151;-47
2023/01/18 07:53:36;;;;;;;3.88;3.45;;;;;;;7.55;80.20;93689.16;5022006;28;20091;-43
2023/01/18 07:56:06;;;;;;;5.82;4.07;;;;;;;8.15;80.62;93691.19;5024571;28;20092;-48
2023/01/18 07:58:36;;;;;;;4.20;3.80;;;;;;;8.38;73.96;93696.16;5030078;28;20084;-44
2023/01/18 08:01:05;;;;;;;4.25;3.85;;;;;;;8.63;71.87;93694.56;5026637;28;20072;-44
2023/01/18 08:03:33;;;;;;;4.60;3.83;;;;;;;7.67;79.01;93715.63;5025512;28;20089;-46
2023/01/18 08:06:02;;;;;;;5.35;3.63;;;;;;;7.91;81.65;93718.78;5024948;28;20497;-44
2023/01/18 08:08:31;;;;;;;4.05;3.45;;;;;;;8.03;80.81;93731.16;5018856;28;20085;-51
2023/01/18 08:11:01;;;;;;;4.43;3.70;;;;;;;8.45;76.78;93729.28;5023310;28;20069;-49
2023/01/18 08:13:29;;;;;;;8.43;3.30;;;;;;;7.68;86.69;93732.22;5023433;28;20065;-46
2023/01/18 08:16:01;;;;;;;3.42;2.90;;;;;;;7.92;82.92;93736.97;5028249;28;20496;-44
2023/01/18 08:18:29;;;;;;;4.30;3.42;;;;;;;7.87;82.66;93739.34;5026280;28;20072;-48
2023/01/18 08:20:58;;;;;;;4.00;3.00;;;;;;;8.15;77.63;93741.88;5022161;28;20465;-44
2023/01/18 08:23:26;;;;;;;8.02;3.83;;;;;;;8.62;73.09;93734.97;5023824;28;20075;-47
2023/01/18 08:25:55;;;;;;;3.85;3.20;;;;;;;8.73;68.13;93729.13;5022520;28;20077;-46
2023/01/18 08:28:23;;;;;;;4.38;3.15;;;;;;;9.43;65.92;93728.72;5024882;28;20080;-46
2023/01/18 08:30:51;;;;;;;4.22;2.92;;;;;;;8.78;66.20;93739.03;5027056;28;20096;-44
2023/01/18 08:33:21;;;;;;;3.60;3.00;;;;;;;9.06;68.76;93738.84;5030755;28;20151;-46
2023/01/18 08:35:49;;;;;;;4.32;3.30;;;;;;;8.33;76.06;93754.47;5028638;28;20478;-42
2023/01/18 08:38:18;;;;;;;6.05;2.80;;;;;;;8.61;73.51;93757.00;5021831;28;20524;-44
2023/01/18 08:40:46;;;;;;;3.47;2.70;;;;;;;8.25;85.34;93767.75;5024413;28;20092;-47
2023/01/18 08:43:14;;;;;;;2.70;2.17;;;;;;;7.56;99.59;93776.50;5029670;28;20239;-46
2023/01/18 08:45:42;;;;;;;2.22;2.03;;;;;;;7.43;100.00;93787.69;5027013;28;20108;-45
2023/01/18 08:48:11;;;;;;;2.35;2.15;;;;;;;7.76;98.81;93787.13;5025617;28;20475;-49
2023/01/18 08:50:41;;;;;;;2.40;1.95;;;;;;;7.76;100.00;93784.50;5025426;28;20092;-44
2023/01/18 08:53:10;;;;;;;2.90;2.58;;;;;;;7.42;100.00;93785.28;5027139;28;20085;-46
2023/01/18 08:55:39;;;;;;;3.83;2.30;;;;;;;7.67;100.00;93798.75;5026812;28;20088;-47
2023/01/18 08:58:07;;;;;;;2.60;2.40;;;;;;;7.42;100.00;93799.19;5022517;28;20084;-46
2023/01/18 09:00:36;;;;;;;2.60;2.40;;;;;;;7.21;100.00;93809.72;5024525;28;20555;-46
2023/01/18 09:03:05;;;;;;;3.13;2.60;;;;;;;7.51;100.00;93813.78;5027826;28;20089;-46
2023/01/18 09:05:35;;;;;;;2.45;2.20;;;;;;;7.49;100.00;93810.53;5025415;28;20107;-47
2023/01/18 09:08:05;;;;;;;2.30;2.10;;;;;;;7.48;100.00;93823.84;5027525;28;20079;-45
2023/01/18 09:10:36;;;;;;;2.42;2.20;;;;;;;7.82;100.00;93821.25;5027301;28;20088;-47
2023/01/18 09:13:05;;;;;;;2.72;2.17;;;;;;;7.83;100.00;93825.50;5023193;28;20104;-44
2023/01/18 09:15:33;;;;;;;2.72;2.40;;;;;;;8.12;100.00;93828.91;5022273;28;20129;-44
2023/01/18 09:18:05;;;;;;;2.75;2.30;;;;;;;7.76;100.00;93832.50;5021070;28;20764;-43
2023/01/18 09:20:34;;;;;;;2.20;2.00;;;;;;;7.67;100.00;93840.72;5026167;28;20147;-45
2023/01/18 09:23:05;;;;;;;2.28;2.08;;;;;;;7.83;100.00;93843.06;5018860;28;20076;-45
2023/01/18 09:25:35;;;;;;;3.50;2.85;;;;;;;7.37;100.00;93841.72;5025196;28;20069;-44
2023/01/18 09:28:05;;;;;;;4.25;2.90;;;;;;;8.08;100.00;93852.06;5016890;28;20085;-45
2023/01/18 09:30:34;;;;;;;3.13;2.50;;;;;;;7.99;100.00;93855.06;5024000;28;20560;-48
2023/01/18 09:33:03;;;;;;;3.30;2.53;;;;;;;7.67;100.00;93856.44;5022624;28;20092;-51
2023/01/18 09:35:31;;;;;;;4.22;2.50;;;;;;;7.42;100.00;93866.56;5022832;28;20085;-42
2023/01/18 09:38:00;;;;;;;3.00;2.40;;;;;;;8.36;100.00;93866.16;5026547;28;20090;-47
2023/01/18 09:40:40;;;;;;;3.72;2.42;;;;;;;8.14;100.00;93878.56;5028580;28;20160;-46
2023/01/18 09:43:16;;;;;;;2.80;2.30;;;;;;;7.81;100.00;93866.88;5024868;28;20079;-45
2023/01/18 09:45:46;;;;;;;2.05;1.95;;;;;;;7.58;100.00;93866.28;5023549;28;20077;-43
2023/01/18 09:48:24;;;;;;;4.80;2.50;;;;;;;7.22;100.00;93887.34;5022416;28;20073;-44
2023/01/18 09:50:53;;;;;;;4.47;2.50;;;;;;;7.53;100.00;93893.06;5022708;28;20077;-52
2023/01/18 09:53:30;;;;;;;3.35;2.50;;;;;;;7.72;100.00;93904.72;5026009;28;20041;-45
2023/01/18 09:56:05;;;;;;;2.45;2.25;;;;;;;7.90;100.00;93899.00;5025396;28;20084;-47
2023/01/18 09:58:41;;;;;;;2.78;2.35;;;;;;;8.21;100.00;93897.78;5027815;28;20080;-45
2023/01/18 10:01:12;;;;;;;3.20;2.60;;;;;;;7.82;100.00;93905.19;5023808;28;20073;-49
2023/01/18 10:03:48;;;;;;;3.58;2.20;;;;;;;7.82;100.00;93907.03;5028645;28;20842;-49
2023/01/18 10:06:22;;;;;;;2.70;2.50;;;;;;;7.63;100.00;93918.97;5029009;28;20097;-47
2023/01/18 10:08:54;;;;;;;2.40;2.20;;;;;;;7.80;100.00;93920.31;5031324;28;20088;-50
2023/01/18 10:11:30;;;;;;;3.13;2.50;;;;;;;7.88;100.00;93931.66;5027986;28;20104;-47
2023/01/18 10:14:04;;;;;;;2.35;2.15;;;;;;;7.67;100.00;93920.19;5028352;28;20068;-43
2023/01/18 10:16:33;;;;;;;2.45;2.25;;;;;;;7.64;100.00;93938.13;5026850;28;20569;-46
2023/01/18 10:19:02;;;;;;;3.08;2.30;;;;;;;7.99;100.00;93937.22;5021861;28;20076;-46
2023/01/18 10:21:37;;;;;;;2.50;2.30;;;;;;;7.76;100.00;93939.25;5029989;28;20078;-45
2023/01/18 10:24:21;;;;;;;5.95;2.70;;;;;;;7.47;100.00;93946.28;5028404;28;20085;-48
2023/01/18 10:26:53;;;;;;;2.70;2.40;;;;;;;7.84;100.00;93953.06;5026021;28;20081;-52
2023/01/18 10:29:31;;;;;;;2.40;2.00;;;;;;;7.67;100.00;93930.69;5029281;28;20081;-44
2023/01/18 10:32:05;;;;;;;6.25;2.53;;;;;;;7.17;100.00;93953.41;5028091;28;20501;-46
2023/01/18 10:34:37;;;;;;;2.30;2.10;;;;;;;7.95;100.00;93956.97;5031976;28;20107;-44
2023/01/18 10:37:13;;;;;;;3.22;2.92;;;;;;;7.92;100.00;93959.97;5027525;28;20081;-45
2023/01/18 10:39:45;;;;;;;2.50;2.10;;;;;;;7.77;100.00;93962.66;5029677;28;20498;-46
2023/01/18 10:42:17;;;;;;;2.00;1.90;;;;;;;7.85;100.00;93966.97;5027384;28;20081;-48
2023/01/18 10:44:46;;;;;;;2.60;2.40;;;;;;;8.16;100.00;93963.19;5031647;28;20085;-48
2023/01/18 10:47:17;;;;;;;2.40;2.20;;;;;;;8.39;99.85;93971.63;5024790;28;20462;-47
2023/01/18 10:49:46;;;;;;;;;;;;;;;7.91;100.00;93968.81;5029712;28;20092;-47
2023/01/18 10:52:24;;;;;;;2.33;2.10;;;;;;;7.89;100.00;93976.09;5025170;28;19968;-48
2023/01/18 10:54:56;;;;;;;2.50;2.30;;;;;;;7.95;100.00;93980.59;5028099;28;20081;-48
2023/01/18 10:57:32;;;;;;;2.47;2.10;;;;;;;7.80;100.00;93978.03;5026817;28;20081;-45
2023/01/18 11:00:00;;;;;;;3.08;2.88;;;;;;;7.74;100.00;93968.31;5032040;28;20073;-42
2023/01/18 11:02:30;;;;;;;2.72;2.53;;;;;;;7.57;100.00;93985.25;5021435;28;20473;-46
2023/01/18 11:05:03;;;;;;;2.70;2.50;;;;;;;8.37;100.00;93978.88;5029916;28;20100;-48
2023/01/18 11:07:31;;;;;;;2.17;2.05;;;;;;;8.20;100.00;93993.28;5023059;28;20124;-45
2023/01/18 11:10:05;;;;;;;2.40;2.20;;;;;;;7.96;100.00;93984.00;5032674;28;20085;-48
2023/01/18 11:12:40;;;;;;;2.22;2.03;;;;;;;7.89;100.00;93993.66;5034180;28;20096;-47
2023/01/18 11:15:29;;;;;;;3.13;2.42;;;;;;;7.82;100.00;93993.59;5025756;28;20648;-44
2023/01/18 11:18:02;;;;;;;4.80;2.88;;;;;;;7.84;100.00;94010.78;5021597;28;20119;-45
2023/01/18 11:20:33;;;;;;;2.83;2.53;;;;;;;7.96;100.00;94015.50;5027534;28;20085;-43
2023/01/18 11:23:03;;;;;;;3.72;3.30;;;;;;;7.50;100.00;94015.84;5026880;28;20080;-47
2023/01/18 11:25:37;;;;;;;3.50;3.20;;;;;;;7.55;100.00;94019.56;5026756;28;20084;-48
2023/01/18 11:28:17;;;;;;;4.22;3.20;;;;;;;7.57;100.00;94029.84;5022851;28;20576;-46
2023/01/18 11:30:51;;;;;;;5.78;3.20;;;;;;;7.32;100.00;94034.63;5022448;28;20073;-44
2023/01/18 11:33:21;;;;;;;4.05;3.00;;;;;;;7.21;100.00;94037.72;5025250;28;20081;-44
2023/01/18 11:35:53;;;;;;;4.32;3.17;;;;;;;7.71;100.00;94043.91;5026947;28;20085;-46
2023/01/18 11:38:27;;;;;;;3.35;3.05;;;;;;;7.87;100.00;94032.38;5025520;28;20092;-45
2023/01/18 11:41:15;;;;;;;3.08;2.70;;;;;;;8.42;100.00;94036.88;5025145;28;20084;-46
2023/01/18 11:44:01;;;;;;;3.58;3.28;;;;;;;7.71;100.00;94039.50;5022854;28;20088;-43
2023/01/18 11:46:37;;;;;;;4.40;3.17;;;;;;;7.64;100.00;94043.88;5022993;28;20115;-43
2023/01/18 11:49:25;;;;;;;3.35;3.05;;;;;;;7.38;100.00;94052.25;5020815;28;20080;-44
2023/01/18 11:51:57;;;;;;;3.65;3.20;;;;;;;7.31;100.00;94053.97;5027070;28;20077;-48
2023/01/18 11:54:29;;;;;;;3.00;2.67;;;;;;;7.63;100.00;94060.56;5025961;28;20093;-48
2023/01/18 11:57:01;;;;;;;5.22;3.53;;;;;;;7.63;100.00;94067.63;5027432;28;20073;-46
2023/01/18 11:59:32;;;;;;;3.33;2.70;;;;;;;7.51;100.00;94073.38;5027870;28;20075;-43
2023/01/18 12:02:30;;;;;;;3.42;3.13;;;;;;;7.24;95.79;94069.63;5025718;28;20089;-45
2023/01/18 12:05:21;;;;;;;2.85;2.65;;;;;;;7.31;97.92;94072.31;5015644;28;20092;-51
2023/01/18 12:08:00;;;;;;;3.40;3.10;;;;;;;8.27;97.46;94084.22;5025619;28;20092;-48
2023/01/18 12:10:33;;;;;;;4.32;3.42;;;;;;;7.82;86.24;94090.66;5031979;28;20079;-44
2023/01/18 12:13:11;;;;;;;4.35;2.90;;;;;;;7.61;90.59;94089.63;5026756;28;20180;-46
2023/01/18 12:15:52;;;;;;;3.03;2.83;;;;;;;7.39;88.13;94106.28;5024908;28;20573;-42
2023/01/18 12:18:42;;;;;;;3.30;3.10;;;;;;;6.98;95.90;94111.19;5026611;28;20100;-44
2023/01/18 12:21:12;;;;;;;5.88;4.18;;;;;;;7.13;100.00;94115.44;5026184;28;20084;-48
2023/01/18 12:23:54;;;;;;;;;;;;;;;7.06;100.00;94122.41;5029010;28;20088;-45
2023/01/18 12:26:28;;;;;;;;;;;;;;;7.26;100.00;94119.22;5026824;28;20404;-51